Time;durP1;ratioP1;P1;durP2;ratioP2;P2;SDS_P1;SDS_P2;PMS_P1;PMS_P2;Temp;Humidity;BMP_temperature;BMP_pressure;BME280_temperature;BME280_humidity;BME280_pressure;Samples;Min_cycle;Max_cycle;Signal;HPM_P1;HPM_P2
2023/06/06 00:01:26;;;;;;;0.90;0.70;;;12.70;99.90;;;;;;7400268;19;19929;-68
2023/06/06 00:03:58;;;;;;;0.60;0.60;;;12.70;99.90;;;;;;7398317;19;20009;-68
2023/06/06 00:06:32;;;;;;;0.98;0.82;;;12.70;99.90;;;;;;7400341;19;19930;-69
2023/06/06 00:09:03;;;;;;;0.60;0.60;;;12.70;99.90;;;;;;7398139;19;19920;-68
2023/06/06 00:11:35;;;;;;;2.20;0.80;;;12.70;99.90;;;;;;7399518;19;19946;-68
2023/06/06 00:14:06;;;;;;;1.08;0.73;;;12.60;99.90;;;;;;7400990;19;20250;-69
2023/06/06 00:16:35;;;;;;;0.90;0.73;;;12.80;99.90;;;;;;7397657;19;20329;-68
2023/06/06 00:19:06;;;;;;;1.10;0.63;;;12.70;99.90;;;;;;7398715;19;19933;-69
2023/06/06 00:21:36;;;;;;;0.88;0.60;;;12.70;99.90;;;;;;7397891;19;19922;-69
2023/06/06 00:24:05;;;;;;;1.33;0.70;;;12.60;99.90;;;;;;7397519;19;19922;-69
2023/06/06 00:26:33;;;;;;;0.82;0.60;;;12.60;99.90;;;;;;7399039;19;19923;-68
2023/06/06 00:29:02;;;;;;;1.33;0.60;;;12.50;99.90;;;;;;7399111;19;19931;-69
2023/06/06 00:31:31;;;;;;;1.50;0.80;;;12.60;99.90;;;;;;7399441;19;19982;-69
2023/06/06 00:34:00;;;;;;;0.88;0.77;;;12.60;99.90;;;;;;7400506;19;19927;-68
2023/06/06 00:36:32;;;;;;;0.55;0.52;;;12.50;99.90;;;;;;7395688;19;20370;-69
2023/06/06 00:39:01;;;;;;;0.75;0.60;;;12.40;99.90;;;;;;7398534;19;19939;-69
2023/06/06 00:41:30;;;;;;;1.25;0.70;;;12.40;99.90;;;;;;7399298;19;19922;-69
2023/06/06 00:43:59;;;;;;;1.30;0.80;;;12.60;99.90;;;;;;7400758;19;20374;-68
2023/06/06 00:46:28;;;;;;;0.68;0.68;;;12.40;99.90;;;;;;7399351;19;20382;-68
2023/06/06 00:48:58;;;;;;;1.17;0.80;;;12.50;99.90;;;;;;7398383;19;20286;-68
2023/06/06 00:51:28;;;;;;;1.83;1.10;;;12.30;99.90;;;;;;7399259;19;19922;-69
2023/06/06 00:54:01;;;;;;;0.88;0.73;;;12.40;99.90;;;;;;7399474;19;19930;-68
2023/06/06 00:56:31;;;;;;;0.75;0.73;;;12.30;99.90;;;;;;7397523;19;19918;-68
2023/06/06 00:59:01;;;;;;;1.25;0.80;;;12.30;99.90;;;;;;7397789;19;19922;-68
2023/06/06 01:01:33;;;;;;;1.38;0.80;;;12.40;99.90;;;;;;7400479;19;20663;-68
2023/06/06 01:04:07;;;;;;;1.02;0.60;;;12.30;99.90;;;;;;7398773;19;19956;-69
2023/06/06 01:06:37;;;;;;;1.50;0.82;;;12.40;99.90;;;;;;7397458;19;19918;-68
2023/06/06 01:09:11;;;;;;;1.00;0.80;;;12.50;99.90;;;;;;7397681;19;19919;-68
2023/06/06 01:11:47;;;;;;;1.67;1.00;;;12.40;99.90;;;;;;7397615;19;20389;-72
2023/06/06 01:14:23;;;;;;;1.17;0.80;;;12.40;99.90;;;;;;7399615;19;19921;-69
2023/06/06 01:16:57;;;;;;;1.27;1.17;;;12.20;99.90;;;;;;7399835;19;19919;-68
2023/06/06 01:19:32;;;;;;;1.02;0.95;;;12.30;99.90;;;;;;7401307;19;19919;-68
2023/06/06 01:22:04;;;;;;;0.73;0.63;;;12.20;99.90;;;;;;7398263;19;19935;-68
2023/06/06 01:24:33;;;;;;;0.73;0.73;;;12.30;99.90;;;;;;7400262;19;20552;-68
2023/06/06 01:27:04;;;;;;;0.90;0.70;;;12.40;99.90;;;;;;7393630;19;19981;-69
2023/06/06 01:29:33;;;;;;;1.27;0.70;;;12.30;99.90;;;;;;7392767;19;19952;-68
2023/06/06 01:32:10;;;;;;;1.80;0.60;;;12.30;99.90;;;;;;7396305;19;19945;-68
2023/06/06 01:35:05;;;;;;;1.15;0.70;;;12.30;99.90;;;;;;7396257;19;19954;-69
2023/06/06 01:37:45;;;;;;;1.00;0.88;;;12.20;99.90;;;;;;7399072;19;20473;-69
2023/06/06 01:40:16;;;;;;;1.95;0.80;;;12.20;99.90;;;;;;7394925;19;19979;-69
2023/06/06 01:42:49;;;;;;;0.82;0.68;;;12.30;99.90;;;;;;7398326;19;19926;-70
2023/06/06 01:45:21;;;;;;;1.95;0.90;;;12.10;99.90;;;;;;7394031;19;19926;-70
2023/06/06 01:47:50;;;;;;;;;;;12.10;99.90;;;;;;7399790;19;19982;-69
2023/06/06 01:50:19;;;;;;;1.10;0.80;;;12.00;99.90;;;;;;7393567;19;19934;-68
2023/06/06 01:52:54;;;;;;;2.38;1.20;;;11.80;99.90;;;;;;7397640;19;19926;-68
2023/06/06 01:55:23;;;;;;;1.90;1.20;;;12.20;99.90;;;;;;7403096;19;19918;-69
2023/06/06 01:57:52;;;;;;;2.15;0.90;;;12.10;99.90;;;;;;7404596;19;19926;-70
2023/06/06 02:00:21;;;;;;;2.65;1.48;;;12.00;99.90;;;;;;7402114;19;19974;-70
2023/06/06 02:02:50;;;;;;;1.58;1.17;;;12.00;99.90;;;;;;7402675;19;20386;-70
2023/06/06 02:05:20;;;;;;;1.25;0.82;;;11.90;99.90;;;;;;7403047;19;19914;-71
2023/06/06 02:07:52;;;;;;;1.38;0.90;;;12.00;99.90;;;;;;7403908;19;19929;-70
2023/06/06 02:10:21;;;;;;;1.27;0.90;;;11.90;99.90;;;;;;7402745;19;20008;-70
2023/06/06 02:12:50;;;;;;;1.55;1.00;;;11.80;99.90;;;;;;7400707;19;19918;-70
2023/06/06 02:15:19;;;;;;;0.95;0.80;;;11.90;99.90;;;;;;7405763;19;20259;-70
2023/06/06 02:17:48;;;;;;;2.00;1.30;;;11.80;99.90;;;;;;7402423;19;20030;-70
2023/06/06 02:20:17;;;;;;;1.67;0.70;;;11.70;99.90;;;;;;7399070;19;19926;-69
2023/06/06 02:22:47;;;;;;;1.88;0.98;;;11.60;99.90;;;;;;7401763;19;19986;-70
2023/06/06 02:25:19;;;;;;;1.40;1.00;;;11.70;99.90;;;;;;7401430;19;19957;-69
2023/06/06 02:27:48;;;;;;;0.82;0.80;;;12.50;99.90;;;;;;7403016;19;19939;-68
2023/06/06 02:30:18;;;;;;;1.08;0.75;;;11.70;99.90;;;;;;7402259;19;19926;-71
2023/06/06 02:32:47;;;;;;;0.90;0.70;;;11.60;99.90;;;;;;7403333;19;19914;-70
2023/06/06 02:35:18;;;;;;;0.98;0.70;;;11.60;99.90;;;;;;7402741;19;19919;-70
2023/06/06 02:37:47;;;;;;;0.90;0.70;;;11.60;99.90;;;;;;7402079;19;19986;-70
2023/06/06 02:40:19;;;;;;;1.02;0.85;;;11.60;99.90;;;;;;7401529;19;19922;-70
2023/06/06 02:42:48;;;;;;;2.38;0.90;;;11.50;99.90;;;;;;7403237;19;20273;-70
2023/06/06 02:45:16;;;;;;;1.60;0.80;;;11.50;99.90;;;;;;7402179;19;19922;-70
2023/06/06 02:47:46;;;;;;;1.25;0.75;;;11.60;99.90;;;;;;7401723;19;19950;-70
2023/06/06 02:50:19;;;;;;;2.83;0.98;;;11.40;99.90;;;;;;7398919;19;19998;-70
2023/06/06 02:52:48;;;;;;;1.38;0.80;;;11.50;99.90;;;;;;7403911;19;20529;-70
2023/06/06 02:55:20;;;;;;;0.80;0.60;;;11.40;99.90;;;;;;7401513;19;19939;-70
2023/06/06 02:57:49;;;;;;;1.02;0.70;;;11.20;99.90;;;;;;7403056;19;19926;-70
2023/06/06 03:00:18;;;;;;;2.08;0.90;;;11.30;99.90;;;;;;7402968;19;20302;-70
2023/06/06 03:02:47;;;;;;;3.78;0.88;;;11.40;99.90;;;;;;7401813;19;19922;-70
2023/06/06 03:05:17;;;;;;;1.75;0.90;;;11.40;99.90;;;;;;7400870;19;20353;-70
2023/06/06 03:07:47;;;;;;;1.42;0.80;;;11.30;99.90;;;;;;7402715;19;19947;-69
2023/06/06 03:10:18;;;;;;;2.00;0.80;;;11.30;99.90;;;;;;7400335;19;19923;-70
2023/06/06 03:12:47;;;;;;;1.30;0.70;;;11.20;99.90;;;;;;7400363;19;19942;-70
2023/06/06 03:15:16;;;;;;;1.40;0.70;;;11.30;99.90;;;;;;7402577;19;19978;-70
2023/06/06 03:17:48;;;;;;;4.20;1.15;;;11.20;99.90;;;;;;7399582;19;20496;-70
2023/06/06 03:20:17;;;;;;;1.73;0.70;;;11.20;99.90;;;;;;7398631;19;20679;-70
2023/06/06 03:22:46;;;;;;;0.93;0.70;;;11.40;99.90;;;;;;7400856;19;19933;-70
2023/06/06 03:25:15;;;;;;;0.95;0.80;;;11.30;99.90;;;;;;7401512;19;19919;-70
2023/06/06 03:27:48;;;;;;;1.70;0.85;;;11.40;99.90;;;;;;7401172;19;19942;-67
2023/06/06 03:30:17;;;;;;;1.88;0.80;;;11.30;99.90;;;;;;7398446;19;20022;-70
2023/06/06 03:32:46;;;;;;;1.20;0.65;;;11.20;99.90;;;;;;7401005;19;20000;-71
2023/06/06 03:35:17;;;;;;;0.95;0.68;;;11.10;99.90;;;;;;7402191;19;19982;-70
2023/06/06 03:37:46;;;;;;;1.05;0.70;;;11.30;99.90;;;;;;7402273;19;19922;-70
2023/06/06 03:40:15;;;;;;;0.68;0.55;;;11.30;99.90;;;;;;7399495;19;20229;-69
2023/06/06 03:42:46;;;;;;;1.65;0.73;;;11.30;99.90;;;;;;7400637;19;19986;-70
2023/06/06 03:45:15;;;;;;;1.98;0.73;;;11.00;99.90;;;;;;7398747;19;20423;-69
2023/06/06 03:47:45;;;;;;;2.22;0.80;;;11.30;99.90;;;;;;7401235;19;20317;-70
2023/06/06 03:50:14;;;;;;;0.90;0.90;;;9.30;99.90;;;;;;7397387;19;19918;-71
2023/06/06 03:52:43;;;;;;;1.10;0.68;;;11.30;99.90;;;;;;7400015;19;19919;-69
2023/06/06 03:55:13;;;;;;;2.40;1.20;;;11.40;99.90;;;;;;7399449;19;19926;-69
2023/06/06 03:57:42;;;;;;;1.52;0.77;;;11.50;99.90;;;;;;7401012;19;19919;-69
2023/06/06 04:00:15;;;;;;;1.23;0.85;;;11.30;99.90;;;;;;7399522;19;19943;-70
2023/06/06 04:02:46;;;;;;;1.02;0.85;;;11.40;99.90;;;;;;7400571;19;19935;-69
2023/06/06 04:05:16;;;;;;;1.23;0.70;;;11.30;99.90;;;;;;7398718;19;19973;-69
2023/06/06 04:07:46;;;;;;;1.38;0.60;;;11.40;99.90;;;;;;7401516;19;19929;-69
2023/06/06 04:10:15;;;;;;;0.98;0.70;;;11.20;99.90;;;;;;7400724;19;19935;-70
2023/06/06 04:12:44;;;;;;;1.98;0.60;;;11.30;99.90;;;;;;7398975;19;20001;-69
2023/06/06 04:15:16;;;;;;;1.60;0.82;;;11.40;99.90;;;;;;7400583;19;19922;-69
2023/06/06 04:17:45;;;;;;;1.23;1.13;;;11.40;99.90;;;;;;7400571;19;19986;-69
2023/06/06 04:20:15;;;;;;;1.48;0.60;;;11.40;99.90;;;;;;7396960;19;19926;-69
2023/06/06 04:22:44;;;;;;;1.67;0.90;;;11.40;99.90;;;;;;7399587;19;19927;-69
2023/06/06 04:25:15;;;;;;;1.52;0.88;;;11.50;99.90;;;;;;7398807;19;19922;-69
2023/06/06 04:27:44;;;;;;;2.30;1.05;;;11.50;99.90;;;;;;7399202;19;19930;-69
2023/06/06 04:30:22;;;;;;;1.85;0.95;;;11.40;99.90;;;;;;7396477;19;20284;-69
2023/06/06 04:32:53;;;;;;;3.47;0.90;;;11.40;99.90;;;;;;7393406;19;19929;-69
2023/06/06 04:35:22;;;;;;;1.85;0.88;;;11.60;99.90;;;;;;7397676;19;19923;-68
2023/06/06 04:37:54;;;;;;;2.03;0.80;;;11.70;99.90;;;;;;7398854;19;19986;-70
2023/06/06 04:40:25;;;;;;;1.20;0.75;;;11.50;99.90;;;;;;7399846;19;19922;-68
2023/06/06 04:42:57;;;;;;;1.63;0.80;;;11.70;99.90;;;;;;7399581;19;19929;-69
2023/06/06 04:45:29;;;;;;;1.10;0.82;;;11.60;99.90;;;;;;7399144;19;19918;-69
2023/06/06 04:47:59;;;;;;;1.65;0.90;;;11.70;99.90;;;;;;7399994;19;20280;-68
2023/06/06 04:50:29;;;;;;;1.98;0.90;;;11.60;99.90;;;;;;7398121;19;19919;-69
2023/06/06 04:52:58;;;;;;;1.90;0.80;;;11.80;99.90;;;;;;7398784;19;19932;-70
2023/06/06 04:55:27;;;;;;;1.58;0.80;;;11.80;99.90;;;;;;7396499;19;20293;-69
2023/06/06 04:57:58;;;;;;;1.48;0.77;;;11.70;99.90;;;;;;7393237;19;19935;-69
2023/06/06 05:00:30;;;;;;;2.13;0.88;;;11.60;99.90;;;;;;7397938;19;20248;-70
2023/06/06 05:03:00;;;;;;;1.02;0.93;;;11.80;99.90;;;;;;7400052;19;19922;-69
2023/06/06 05:05:29;;;;;;;2.72;0.93;;;11.90;99.90;;;;;;7399661;19;20305;-69
2023/06/06 05:07:58;;;;;;;2.08;0.98;;;12.00;99.90;;;;;;7397173;19;20816;-70
2023/06/06 05:10:28;;;;;;;2.47;0.80;;;11.90;99.90;;;;;;7398088;19;19939;-69
2023/06/06 05:12:57;;;;;;;2.67;1.30;;;11.80;99.90;;;;;;7398655;19;19941;-69
2023/06/06 05:15:28;;;;;;;2.30;1.02;;;11.70;99.90;;;;;;7399001;19;19931;-69
2023/06/06 05:17:58;;;;;;;2.72;0.98;;;11.80;99.90;;;;;;7397439;19;19923;-70
2023/06/06 05:20:27;;;;;;;0.85;0.80;;;11.80;99.90;;;;;;7395675;19;19919;-69
2023/06/06 05:22:56;;;;;;;1.75;1.02;;;12.10;99.90;;;;;;7396986;19;20914;-69
2023/06/06 05:25:25;;;;;;;0.95;0.73;;;11.90;99.90;;;;;;7395968;19;19955;-69
2023/06/06 05:27:55;;;;;;;2.10;1.00;;;11.80;99.90;;;;;;7398562;19;19947;-71
2023/06/06 05:30:24;;;;;;;2.03;0.70;;;11.30;99.90;;;;;;7403464;19;20272;-69
2023/06/06 05:32:55;;;;;;;1.27;0.82;;;11.80;99.90;;;;;;7405399;19;19928;-69
2023/06/06 05:35:24;;;;;;;1.80;1.10;;;11.80;99.90;;;;;;7404302;19;20612;-68
2023/06/06 05:37:53;;;;;;;2.13;0.75;;;12.00;99.90;;;;;;7401460;19;19930;-69
2023/06/06 05:40:22;;;;;;;0.98;0.70;;;11.80;99.90;;;;;;7405343;19;19921;-69
2023/06/06 05:42:51;;;;;;;2.20;0.85;;;12.00;99.90;;;;;;7403641;19;20251;-69
2023/06/06 05:45:20;;;;;;;3.17;0.70;;;12.00;99.90;;;;;;7405669;19;19926;-69
2023/06/06 05:47:49;;;;;;;2.20;0.80;;;12.00;99.90;;;;;;7406177;19;19926;-69
2023/06/06 05:50:21;;;;;;;2.00;0.90;;;12.00;99.90;;;;;;7403348;19;20375;-69
2023/06/06 05:52:50;;;;;;;2.38;1.15;;;12.00;99.90;;;;;;7406243;19;20262;-68
2023/06/06 05:55:30;;;;;;;1.58;0.70;;;12.00;99.90;;;;;;7402325;19;19946;-68
2023/06/06 05:57:59;;;;;;;1.75;0.80;;;12.10;99.90;;;;;;7401518;19;19918;-67
2023/06/06 06:00:30;;;;;;;1.00;0.60;;;10.20;99.90;;;;;;7402159;19;19926;-70
2023/06/06 06:03:00;;;;;;;3.15;0.95;;;12.00;99.90;;;;;;7405872;19;19923;-70
2023/06/06 06:05:32;;;;;;;1.60;0.73;;;12.10;99.90;;;;;;7403254;19;19915;-70
2023/06/06 06:08:02;;;;;;;3.63;0.95;;;12.10;99.90;;;;;;7400227;19;19922;-70
2023/06/06 06:10:33;;;;;;;1.05;0.85;;;12.20;99.90;;;;;;7402491;19;19914;-70
2023/06/06 06:13:03;;;;;;;1.63;0.90;;;12.30;99.90;;;;;;7401433;19;20353;-70
2023/06/06 06:15:34;;;;;;;1.65;0.70;;;12.40;99.90;;;;;;7401545;19;20082;-70
2023/06/06 06:18:03;;;;;;;;;;;12.40;99.90;;;;;;7406982;19;20268;-70
2023/06/06 06:20:35;;;;;;;2.22;0.75;;;12.40;99.90;;;;;;7397403;19;19922;-71
2023/06/06 06:23:03;;;;;;;1.45;0.90;;;12.60;99.90;;;;;;7403418;19;19927;-68
2023/06/06 06:25:35;;;;;;;1.83;0.90;;;12.60;99.90;;;;;;7399421;19;19938;-69
2023/06/06 06:28:05;;;;;;;2.30;0.80;;;12.60;99.90;;;;;;7400953;19;19919;-69
2023/06/06 06:30:34;;;;;;;2.17;0.80;;;12.80;99.90;;;;;;7400546;19;19918;-69
2023/06/06 06:33:03;;;;;;;1.63;0.80;;;12.80;99.90;;;;;;7402585;19;19982;-69
2023/06/06 06:35:35;;;;;;;1.95;0.75;;;12.90;99.90;;;;;;7404615;19;19931;-70
2023/06/06 06:38:04;;;;;;;2.25;1.00;;;12.90;99.90;;;;;;7398733;19;19915;-69
2023/06/06 06:40:33;;;;;;;2.90;0.82;;;12.90;99.90;;;;;;7397805;19;19919;-69
2023/06/06 06:43:02;;;;;;;1.75;0.98;;;12.90;99.90;;;;;;7400673;19;20283;-69
2023/06/06 06:45:31;;;;;;;1.17;0.80;;;13.00;99.90;;;;;;7401164;19;20257;-69
2023/06/06 06:48:02;;;;;;;0.93;0.80;;;13.00;99.90;;;;;;7400889;19;19998;-70
2023/06/06 06:50:34;;;;;;;1.05;0.75;;;13.10;99.90;;;;;;7397606;19;19971;-70
2023/06/06 06:53:04;;;;;;;2.00;0.90;;;13.20;99.90;;;;;;7398966;19;19923;-70
2023/06/06 06:55:34;;;;;;;2.92;1.05;;;13.20;99.90;;;;;;7400176;19;20002;-69
2023/06/06 06:58:03;;;;;;;2.15;0.85;;;13.30;99.90;;;;;;7402862;19;19922;-70
2023/06/06 07:00:33;;;;;;;1.70;0.90;;;13.30;99.90;;;;;;7401055;19;20297;-69
2023/06/06 07:03:04;;;;;;;1.60;0.90;;;13.40;99.90;;;;;;7397416;19;19930;-70
2023/06/06 07:05:36;;;;;;;1.13;0.95;;;13.40;99.90;;;;;;7399851;19;19926;-70
2023/06/06 07:08:05;;;;;;;1.92;0.90;;;13.50;99.90;;;;;;7399148;19;20317;-70
2023/06/06 07:10:35;;;;;;;1.30;0.80;;;13.70;99.90;;;;;;7400762;19;20419;-70
2023/06/06 07:13:04;;;;;;;1.95;0.70;;;13.60;99.90;;;;;;7401026;19;19947;-70
2023/06/06 07:15:39;;;;;;;0.98;0.85;;;13.60;99.90;;;;;;7402568;19;19918;-70
2023/06/06 07:18:09;;;;;;;1.73;0.95;;;13.50;99.90;;;;;;7400115;19;19918;-70
2023/06/06 07:20:41;;;;;;;2.45;1.33;;;13.70;99.90;;;;;;7401485;19;19923;-70
2023/06/06 07:23:10;;;;;;;;;;;13.60;99.90;;;;;;7402198;19;19919;-69
2023/06/06 07:25:38;;;;;;;;;;;13.70;99.90;;;;;;7400448;19;20584;-70
2023/06/06 07:28:07;;;;;;;1.13;0.85;;;13.70;99.90;;;;;;7404893;19;20642;-70
2023/06/06 07:30:37;;;;;;;1.60;0.70;;;13.80;99.90;;;;;;7401132;19;19926;-69
2023/06/06 07:33:06;;;;;;;2.83;0.75;;;13.70;99.90;;;;;;7403608;19;19926;-70
2023/06/06 07:35:36;;;;;;;1.25;0.93;;;13.90;99.90;;;;;;7403673;19;19982;-70
2023/06/06 07:38:07;;;;;;;0.85;0.80;;;14.00;99.90;;;;;;7402763;19;19922;-69
2023/06/06 07:40:36;;;;;;;2.25;1.02;;;14.00;99.90;;;;;;7401348;19;19938;-70
2023/06/06 07:43:05;;;;;;;1.38;0.80;;;13.90;99.90;;;;;;7399880;19;20642;-70
2023/06/06 07:45:34;;;;;;;2.97;0.90;;;14.10;99.90;;;;;;7401091;19;19993;-70
2023/06/06 07:48:04;;;;;;;1.55;0.82;;;14.10;99.90;;;;;;7403333;19;19914;-70
2023/06/06 07:50:32;;;;;;;1.27;0.77;;;14.20;99.90;;;;;;7398158;19;20045;-70
2023/06/06 07:53:01;;;;;;;1.63;0.88;;;14.40;99.90;;;;;;7402565;19;19944;-70
2023/06/06 07:55:33;;;;;;;1.95;0.90;;;14.40;99.90;;;;;;7401657;19;19942;-70
2023/06/06 07:58:02;;;;;;;1.05;0.75;;;14.40;99.90;;;;;;7400193;19;19922;-69
2023/06/06 08:00:31;;;;;;;1.60;0.90;;;14.40;99.90;;;;;;7399591;19;19947;-69
2023/06/06 08:03:00;;;;;;;1.15;0.70;;;14.50;99.90;;;;;;7400085;19;19935;-69
2023/06/06 08:05:34;;;;;;;1.48;0.90;;;14.60;99.90;;;;;;7401246;19;19936;-70
2023/06/06 08:08:03;;;;;;;1.73;0.77;;;14.70;99.90;;;;;;7403070;19;19977;-70
2023/06/06 08:10:34;;;;;;;2.55;1.10;;;14.60;99.90;;;;;;7401541;19;20291;-70
2023/06/06 08:13:04;;;;;;;0.95;0.90;;;14.80;99.90;;;;;;7400632;19;19928;-70
2023/06/06 08:15:33;;;;;;;1.60;1.10;;;14.80;99.90;;;;;;7401604;19;20345;-70
2023/06/06 08:18:02;;;;;;;1.45;0.90;;;14.70;99.90;;;;;;7402549;19;19923;-69
2023/06/06 08:20:31;;;;;;;1.48;1.15;;;14.70;99.90;;;;;;7399361;19;19986;-69
2023/06/06 08:23:00;;;;;;;0.77;0.70;;;14.90;99.90;;;;;;7398794;19;19974;-69
2023/06/06 08:25:29;;;;;;;2.00;1.10;;;14.90;99.90;;;;;;7401079;19;19923;-70
2023/06/06 08:28:01;;;;;;;1.85;1.00;;;15.00;99.90;;;;;;7399899;19;19926;-70
2023/06/06 08:30:30;;;;;;;3.30;1.05;;;15.10;99.90;;;;;;7399899;19;20010;-68
2023/06/06 08:32:59;;;;;;;1.92;1.02;;;15.20;99.90;;;;;;7398585;19;19978;-68
2023/06/06 08:35:28;;;;;;;1.75;0.75;;;15.20;99.90;;;;;;7400418;19;19923;-69
2023/06/06 08:37:57;;;;;;;1.13;0.90;;;15.20;99.90;;;;;;7399803;19;19930;-68
2023/06/06 08:40:26;;;;;;;2.50;1.00;;;15.20;99.90;;;;;;7401412;19;19922;-68
2023/06/06 08:42:55;;;;;;;1.60;0.93;;;15.30;99.90;;;;;;7398840;19;19922;-68
2023/06/06 08:45:27;;;;;;;1.63;0.88;;;15.20;99.90;;;;;;7400838;19;19922;-69
2023/06/06 08:47:58;;;;;;;;;;;15.40;99.90;;;;;;7402984;19;19922;-69
2023/06/06 08:50:29;;;;;;;0.82;0.80;;;15.40;99.90;;;;;;7398123;19;19923;-70
2023/06/06 08:53:04;;;;;;;1.48;1.08;;;15.50;99.90;;;;;;7399998;19;19974;-68
2023/06/06 08:55:36;;;;;;;1.60;0.93;;;15.60;99.90;;;;;;7400509;19;20046;-69
2023/06/06 08:58:07;;;;;;;1.17;1.08;;;15.50;99.90;;;;;;7398004;19;19943;-69
2023/06/06 09:00:39;;;;;;;1.65;0.93;;;15.70;99.90;;;;;;7400900;19;19926;-69
2023/06/06 09:03:09;;;;;;;1.92;1.00;;;15.60;99.90;;;;;;7402329;19;19990;-70
2023/06/06 09:05:40;;;;;;;1.42;0.88;;;15.80;99.90;;;;;;7406377;19;19922;-70
2023/06/06 09:08:10;;;;;;;1.38;0.88;;;15.70;99.90;;;;;;7406634;19;19925;-69
2023/06/06 09:10:39;;;;;;;2.72;1.20;;;15.80;99.90;;;;;;7407727;19;20269;-69
2023/06/06 09:13:08;;;;;;;2.10;1.20;;;15.90;99.90;;;;;;7403917;19;19922;-69
2023/06/06 09:15:40;;;;;;;1.27;0.75;;;15.90;99.90;;;;;;7406982;19;19910;-69
2023/06/06 09:18:09;;;;;;;1.88;0.82;;;16.00;99.90;;;;;;7404673;19;19930;-70
2023/06/06 09:20:40;;;;;;;2.67;0.98;;;16.20;99.90;;;;;;7405940;19;20012;-69
2023/06/06 09:23:15;;;;;;;1.52;0.93;;;16.20;99.90;;;;;;7403478;19;19925;-69
2023/06/06 09:25:47;;;;;;;2.05;0.68;;;16.30;99.90;;;;;;7405385;19;19946;-69
2023/06/06 09:28:18;;;;;;;1.10;0.80;;;16.30;99.90;;;;;;7405585;19;20262;-70
2023/06/06 09:30:50;;;;;;;2.38;1.17;;;16.40;99.90;;;;;;7404372;19;19943;-71
2023/06/06 09:33:18;;;;;;;;;;;16.70;99.90;;;;;;7404928;19;19918;-70
2023/06/06 09:35:48;;;;;;;2.33;1.00;;;16.70;99.90;;;;;;7403180;19;19922;-70
2023/06/06 09:38:18;;;;;;;2.25;1.10;;;15.90;99.90;;;;;;7402864;19;19922;-70
2023/06/06 09:40:49;;;;;;;1.10;0.93;;;16.90;99.90;;;;;;7395883;19;20361;-70
2023/06/06 09:43:18;;;;;;;1.10;0.93;;;17.00;99.90;;;;;;7393975;19;19919;-73
2023/06/06 09:45:57;;;;;;;2.65;1.20;;;17.30;99.90;;;;;;7402975;19;19997;-74
2023/06/06 09:48:28;;;;;;;1.48;1.10;;;17.30;99.90;;;;;;7401726;19;19956;-73
2023/06/06 09:50:57;;;;;;;1.52;1.00;;;17.30;99.90;;;;;;7391372;19;19943;-75
2023/06/06 09:53:27;;;;;;;1.23;0.85;;;17.30;99.90;;;;;;7392111;19;19926;-75
2023/06/06 09:56:01;;;;;;;1.10;1.00;;;17.40;99.90;;;;;;7395843;19;19919;-76
2023/06/06 09:58:33;;;;;;;3.60;1.25;;;17.60;99.90;;;;;;7402078;19;19926;-75
2023/06/06 10:01:06;;;;;;;1.75;1.10;;;17.70;99.90;;;;;;7404341;19;20001;-77
2023/06/06 10:03:37;;;;;;;2.38;1.15;;;17.80;99.90;;;;;;7402803;19;19928;-76
2023/06/06 10:06:08;;;;;;;1.25;1.10;;;17.90;99.90;;;;;;7401536;19;19952;-75
2023/06/06 10:08:40;;;;;;;1.70;1.27;;;18.00;99.90;;;;;;7406431;19;19922;-73
2023/06/06 10:11:10;;;;;;;1.55;1.15;;;18.00;99.90;;;;;;7404170;19;19922;-74
2023/06/06 10:13:40;;;;;;;1.85;1.00;;;18.00;99.90;;;;;;7404897;19;19982;-77
2023/06/06 10:16:12;;;;;;;1.55;0.88;;;18.10;99.90;;;;;;7401896;19;19914;-74
2023/06/06 10:18:46;;;;;;;1.90;0.80;;;18.20;99.90;;;;;;7406998;19;19933;-74
2023/06/06 10:21:17;;;;;;;1.25;1.13;;;18.20;99.90;;;;;;7405327;19;19923;-75
2023/06/06 10:23:48;;;;;;;1.75;1.00;;;18.40;99.90;;;;;;7405936;19;20365;-75
2023/06/06 10:26:24;;;;;;;1.40;1.00;;;18.40;99.90;;;;;;7406588;19;19942;-73
2023/06/06 10:29:04;;;;;;;1.35;1.23;;;18.50;99.90;;;;;;7404876;19;19927;-75
2023/06/06 10:31:42;;;;;;;2.70;1.00;;;18.60;99.90;;;;;;7401480;19;20361;-75
2023/06/06 10:34:17;;;;;;;1.55;1.00;;;18.60;99.90;;;;;;7402830;19;19915;-74
2023/06/06 10:36:47;;;;;;;2.70;1.10;;;19.00;99.90;;;;;;7404213;19;19926;-71
2023/06/06 10:39:25;;;;;;;1.60;0.93;;;18.90;99.90;;;;;;7403026;19;19929;-75
2023/06/06 10:41:56;;;;;;;1.98;0.90;;;19.00;99.90;;;;;;7403596;19;19927;-75
2023/06/06 10:44:29;;;;;;;2.05;1.30;;;18.90;99.90;;;;;;7403036;19;19974;-75
2023/06/06 10:47:30;;;;;;;1.38;0.90;;;19.10;99.90;;;;;;7404909;19;19922;-75
2023/06/06 10:50:24;;;;;;;1.08;0.93;;;19.30;99.90;;;;;;7402292;19;19982;-75
2023/06/06 10:52:57;;;;;;;2.25;1.50;;;19.40;99.90;;;;;;7403463;19;19970;-75
2023/06/06 10:55:56;;;;;;;1.60;0.90;;;19.30;99.90;;;;;;7403402;19;19919;-76
2023/06/06 10:58:30;;;;;;;2.22;1.10;;;19.40;99.90;;;;;;7400811;19;20026;-75
2023/06/06 11:01:01;;;;;;;0.80;0.80;;;19.60;99.90;;;;;;7402839;19;20763;-76
2023/06/06 11:03:40;;;;;;;2.22;1.00;;;19.70;99.90;;;;;;7401985;19;19919;-76
2023/06/06 11:06:15;;;;;;;1.33;1.00;;;19.50;99.90;;;;;;7403931;19;19931;-75
2023/06/06 11:08:47;;;;;;;2.05;1.00;;;19.70;99.90;;;;;;7404654;19;19915;-75
2023/06/06 11:11:16;;;;;;;;;;;19.80;99.90;;;;;;7407032;19;19926;-76
2023/06/06 11:13:53;;;;;;;2.22;0.93;;;19.80;99.90;;;;;;7402639;19;19970;-77
2023/06/06 11:16:57;;;;;;;1.30;0.85;;;19.70;99.90;;;;;;7401838;19;19922;-75
2023/06/06 11:19:37;;;;;;;1.95;0.82;;;20.00;99.90;;;;;;7398767;19;19983;-74
2023/06/06 11:22:09;;;;;;;2.45;0.95;;;19.90;99.90;;;;;;7401224;19;20341;-76
2023/06/06 11:24:38;;;;;;;1.63;1.00;;;20.30;99.90;;;;;;7399962;19;19922;-76
2023/06/06 11:27:08;;;;;;;1.75;0.88;;;20.40;99.90;;;;;;7401107;19;19982;-77
2023/06/06 11:29:38;;;;;;;1.80;0.82;;;20.30;99.90;;;;;;7402163;19;20144;-77
2023/06/06 11:32:13;;;;;;;3.47;1.13;;;20.60;99.90;;;;;;7402952;19;19918;-79
2023/06/06 11:34:42;;;;;;;1.33;1.00;;;20.60;99.90;;;;;;7402781;19;19918;-77
2023/06/06 11:37:14;;;;;;;1.35;1.02;;;20.50;99.90;;;;;;7404534;19;19930;-77
2023/06/06 11:39:43;;;;;;;1.00;0.90;;;20.70;99.90;;;;;;7398888;19;20532;-79
2023/06/06 11:42:20;;;;;;;1.02;0.80;;;20.60;99.90;;;;;;7404615;19;19930;-82
2023/06/06 11:44:49;;;;;;;1.40;0.93;;;20.80;99.90;;;;;;7404952;19;19919;-79
2023/06/06 11:47:19;;;;;;;1.75;0.85;;;20.90;99.90;;;;;;7401848;19;19918;-79
2023/06/06 11:49:49;;;;;;;1.50;1.08;;;21.00;99.90;;;;;;7403549;19;20325;-79
2023/06/06 11:52:21;;;;;;;1.73;0.82;;;21.00;99.90;;;;;;7403407;19;19922;-78
2023/06/06 11:55:04;;;;;;;1.42;1.00;;;21.10;99.90;;;;;;7397339;19;19934;-74
2023/06/06 11:57:34;;;;;;;1.40;0.88;;;21.00;99.90;;;;;;7401855;19;19922;-73
2023/06/06 12:00:15;;;;;;;2.60;1.13;;;21.20;99.90;;;;;;7396872;19;20353;-75
2023/06/06 12:02:48;;;;;;;1.30;1.20;;;21.30;99.90;;;;;;7401657;19;19918;-75
2023/06/06 12:05:24;;;;;;;1.63;1.08;;;21.40;99.90;;;;;;7396043;19;19915;-73
2023/06/06 12:07:59;;;;;;;3.50;1.15;;;21.50;99.90;;;;;;7388256;19;19922;-72
2023/06/06 12:10:30;;;;;;;1.40;1.10;;;21.50;99.90;;;;;;7399218;19;19923;-72
2023/06/06 12:13:00;;;;;;;2.00;1.02;;;21.80;99.90;;;;;;7400289;19;19943;-73
2023/06/06 12:15:48;;;;;;;1.58;1.10;;;21.80;99.90;;;;;;7397010;19;19978;-74
2023/06/06 12:18:17;;;;;;;1.75;1.10;;;21.80;99.90;;;;;;7400061;19;19986;-73
2023/06/06 12:20:46;;;;;;;1.83;1.00;;;21.90;99.90;;;;;;7399448;19;19990;-71
2023/06/06 12:23:28;;;;;;;1.00;0.77;;;21.80;99.90;;;;;;7394520;19;19953;-74
2023/06/06 12:26:00;;;;;;;1.45;0.90;;;22.10;99.90;;;;;;7399094;19;19935;-73
2023/06/06 12:28:30;;;;;;;2.45;0.98;;;22.20;99.90;;;;;;7398309;19;19939;-72
2023/06/06 12:30:59;;;;;;;1.52;1.10;;;22.20;99.90;;;;;;7397626;19;20315;-73
2023/06/06 12:33:49;;;;;;;1.92;0.93;;;22.10;99.90;;;;;;7399255;19;20360;-74
2023/06/06 12:36:19;;;;;;;1.55;0.93;;;22.30;99.90;;;;;;7397895;19;20313;-74
2023/06/06 12:39:00;;;;;;;1.27;0.93;;;22.30;99.90;;;;;;7396350;19;19947;-74
2023/06/06 12:41:39;;;;;;;2.95;1.00;;;22.30;99.90;;;;;;7402741;19;19923;-74
2023/06/06 12:44:11;;;;;;;1.42;1.10;;;22.30;99.90;;;;;;7387890;19;19999;-74
2023/06/06 12:46:41;;;;;;;2.22;0.80;;;22.50;99.90;;;;;;7382335;19;19922;-75
2023/06/06 12:49:11;;;;;;;1.20;0.95;;;22.60;99.90;;;;;;7394105;19;19922;-72
2023/06/06 12:51:44;;;;;;;2.00;0.85;;;22.60;99.90;;;;;;7388925;19;19936;-74
2023/06/06 12:54:16;;;;;;;2.25;1.17;;;22.50;99.90;;;;;;7394717;19;20321;-75
2023/06/06 12:56:44;;;;;;;;;;;23.00;99.90;;;;;;7400925;19;20069;-75
2023/06/06 12:59:14;;;;;;;1.75;1.20;;;23.00;99.90;;;;;;7400805;19;19927;-75
2023/06/06 13:01:43;;;;;;;1.55;0.80;;;22.80;99.90;;;;;;7397470;19;19926;-75
2023/06/06 13:04:11;;;;;;;2.35;1.00;;;23.00;99.90;;;;;;7399023;19;19926;-75
2023/06/06 13:06:41;;;;;;;1.90;0.90;;;23.10;99.90;;;;;;7398447;19;19982;-75
2023/06/06 13:09:11;;;;;;;1.58;0.80;;;23.20;99.90;;;;;;7393035;19;19943;-75